Nyala, Nevada Weather observations

Data are for observation ending at time listed.
 Day   Time    Ave.   Ave.  Ave.  Vector   Max.   Stn.    Total    Solar   Ave.  
  of    of     Air    Rel.  Wind   Wind    Wind   Baro.  Precip.   Rad.    Soil  
Year   Day     Temp.  Hum.  Speed  Dir.    Gust   Pres.                    Temp. 
2014   (PST)    F      %     mph   deg.    mph     mb.     in.     W/m2     F   
------------------------------------------------------------------------------
 209    5:00   71.3    48    1.9    29      6.1    857     0.00       1    83.2
 209    6:00   72.3    46    1.2   245      6.6    857     0.00      27    82.7
 209    7:00   75.0    42    0.5    40      4.5    858     0.00      56    82.3
 209    8:00   77.9    38    3.6    12      8.4    858     0.00     149    82.3
 209    9:00   79.0    36    2.6    10      7.5    858     0.00      98    82.9
 209   10:00   81.6    31    1.2   273      5.7    858     0.00     161    83.5
 209   11:00   84.3    29    4.5   191     14.6    858     0.00     223    84.3
 209   12:00   84.2    29    8.2   151     14.3    858     0.00     184    85.6
 209   13:00   85.4    28    6.5   154     15.7    858     0.00     280    86.7
 209   14:00   85.2    30    5.9   201     17.2    857     0.00     183    88.1
 209   15:00   80.4    36   10.3   208     21.9    857     0.00      71    89.5
 209   16:00   79.7    41    9.6   219     16.9    857     0.00      82    89.3
 209   17:00   83.4    33   10.3   250     17.0    857     0.00     204    88.6
 209   18:00   78.8    44    9.0   104     19.7    857     0.00      71    88.9
 209   19:00   69.3    70   13.0    18     29.1    858     0.00      15    88.8
 209   20:00   68.2    65    8.3    40     19.1    859     0.00       0    87.3
 209   21:00   69.8    56    4.8   298     10.5    859     0.00       0    85.8
 209   22:00   67.1    69    2.8   217      9.9    859     0.00       0    84.6
 209   23:00   64.8    81    1.8   303      4.5    858     0.01       0    83.6
 210    0:00   64.1    88    1.2   230      4.5    858     0.01       0    82.4
 210    1:00   64.1    88    0.4   223      2.0    858     0.00       0    81.5
 210    2:00   63.7    89    1.3   140      3.5    858     0.00       0    80.6
 210    3:00   63.4    87    2.0   206      3.9    857     0.00       0    79.8
 210    4:00   62.7    90    1.5   154      3.6    857     0.00       0    79.0

Return to Nyala, Nevada graphs page.


Western Regional Climate Center,wrcc@dri.edu